createdAt,value
2022-09-27T00:01:15.304Z,0.43
2022-09-27T00:03:42.562Z,0.60
2022-09-27T00:06:19.020Z,0.52
2022-09-27T00:08:45.784Z,1.02
2022-09-27T00:11:28.184Z,0.52
2022-09-27T00:13:57.240Z,0.50
2022-09-27T00:16:27.619Z,0.60
2022-09-27T00:19:03.980Z,0.40
2022-09-27T00:21:31.998Z,0.57
2022-09-27T00:23:59.992Z,0.55
2022-09-27T00:26:27.833Z,0.60
2022-09-27T00:28:55.008Z,1.02
2022-09-27T00:31:32.234Z,0.60
2022-09-27T00:34:03.427Z,0.50
2022-09-27T00:36:31.100Z,0.60
2022-09-27T00:38:59.902Z,0.38
2022-09-27T00:41:32.710Z,0.32
2022-09-27T00:44:04.704Z,0.40
2022-09-27T00:46:42.350Z,0.50
2022-09-27T00:49:19.096Z,0.38
2022-09-27T00:51:53.464Z,0.77
2022-09-27T00:54:24.925Z,0.50
2022-09-27T00:56:53.121Z,0.52
2022-09-27T00:59:28.586Z,0.60
2022-09-27T01:01:56.011Z,0.55
2022-09-27T01:04:26.960Z,0.50
2022-09-27T01:06:54.748Z,0.50
2022-09-27T01:09:22.921Z,0.60
2022-09-27T01:12:26.878Z,0.73
2022-09-27T01:15:08.745Z,0.40
2022-09-27T01:17:44.192Z,0.80
2022-09-27T01:20:52.232Z,0.60
2022-09-27T01:23:57.931Z,1.00
2022-09-27T01:27:14.619Z,0.68
2022-09-27T01:30:33.715Z,0.60
2022-09-27T01:33:24.731Z,0.50
2022-09-27T01:36:23.109Z,0.60
2022-09-27T01:39:10.790Z,0.85
2022-09-27T01:42:29.303Z,0.60
2022-09-27T01:45:09.356Z,0.82
2022-09-27T01:47:56.679Z,1.38
2022-09-27T01:50:49.792Z,0.90
2022-09-27T01:53:32.203Z,0.65
2022-09-27T01:56:35.901Z,0.70
2022-09-27T01:59:25.976Z,0.70
2022-09-27T02:02:08.939Z,0.50
2022-09-27T02:05:05.211Z,0.63
2022-09-27T02:07:48.552Z,0.77
2022-09-27T02:10:24.421Z,0.60
2022-09-27T02:13:21.174Z,0.80
2022-09-27T02:16:05.502Z,0.90
2022-09-27T02:19:04.393Z,0.60
2022-09-27T02:21:52.945Z,0.60
2022-09-27T02:24:30.075Z,0.73
2022-09-27T02:27:12.095Z,1.23
2022-09-27T02:29:51.302Z,1.13
2022-09-27T02:32:18.489Z,1.73
2022-09-27T02:34:48.818Z,0.80
2022-09-27T02:37:16.116Z,0.60
2022-09-27T02:39:43.515Z,0.65
2022-09-27T02:42:10.725Z,1.15
2022-09-27T02:44:40.741Z,0.40
2022-09-27T02:47:44.726Z,0.65
2022-09-27T02:50:43.415Z,1.05
2022-09-27T02:53:48.040Z,0.70
2022-09-27T02:57:17.150Z,1.23
2022-09-27T03:00:19.625Z,0.70
2022-09-27T03:03:08.648Z,0.82
2022-09-27T03:06:05.840Z,1.00
2022-09-27T03:08:32.952Z,0.95
2022-09-27T03:11:00.016Z,1.13
2022-09-27T03:13:27.783Z,0.73
2022-09-27T03:16:01.264Z,1.60
2022-09-27T03:18:50.237Z,0.80
2022-09-27T03:21:17.037Z,0.80
2022-09-27T03:23:43.881Z,1.20
2022-09-27T03:26:12.985Z,1.13
2022-09-27T03:28:40.261Z,0.90
2022-09-27T03:31:07.125Z,1.27
2022-09-27T03:33:55.439Z,0.98
2022-09-27T03:36:22.783Z,1.00
2022-09-27T03:38:49.564Z,0.85
2022-09-27T03:41:18.716Z,1.00
2022-09-27T03:43:45.579Z,1.17
2022-09-27T03:46:12.684Z,1.23
2022-09-27T03:48:39.629Z,0.95
2022-09-27T03:51:06.583Z,1.00
2022-09-27T03:53:33.779Z,1.30
2022-09-27T03:56:00.767Z,0.93
2022-09-27T03:58:27.614Z,1.10
2022-09-27T04:00:54.644Z,0.95
2022-09-27T04:03:21.851Z,0.90
2022-09-27T04:06:07.667Z,1.17
2022-09-27T04:08:38.601Z,1.10
2022-09-27T04:11:07.025Z,0.90
2022-09-27T04:13:35.140Z,1.20
2022-09-27T04:16:02.852Z,1.02
2022-09-27T04:18:59.377Z,1.02
2022-09-27T04:21:38.163Z,0.70
2022-09-27T04:24:06.876Z,0.73
2022-09-27T04:26:34.667Z,1.00
2022-09-27T04:29:03.776Z,0.80
2022-09-27T04:31:32.448Z,0.82
2022-09-27T04:34:17.868Z,1.10
2022-09-27T04:36:44.708Z,0.90
2022-09-27T04:39:18.850Z,1.20
2022-09-27T04:41:47.079Z,1.20
2022-09-27T04:44:13.893Z,0.68
2022-09-27T04:46:44.328Z,1.30
2022-09-27T04:49:12.156Z,0.98
2022-09-27T04:51:39.276Z,0.93
2022-09-27T04:54:06.324Z,0.80
2022-09-27T04:56:36.787Z,0.88
2022-09-27T04:59:09.852Z,0.68
2022-09-27T05:01:37.611Z,1.00
2022-09-27T05:04:07.472Z,0.93
2022-09-27T05:06:37.305Z,0.75
2022-09-27T05:09:18.633Z,0.63
2022-09-27T05:11:54.454Z,0.73
2022-09-27T05:14:44.533Z,0.63
2022-09-27T05:17:24.294Z,0.85
2022-09-27T05:20:10.708Z,1.15
2022-09-27T05:22:58.238Z,1.00
2022-09-27T05:25:25.143Z,1.08
2022-09-27T05:27:52.517Z,0.70
2022-09-27T05:30:20.120Z,0.80
2022-09-27T05:32:52.888Z,1.23
2022-09-27T05:35:26.084Z,0.80
2022-09-27T05:38:00.210Z,0.90
2022-09-27T05:40:40.976Z,1.25
2022-09-27T05:43:09.593Z,1.17
2022-09-27T05:45:36.918Z,0.82
2022-09-27T05:48:06.432Z,1.02
2022-09-27T05:50:38.623Z,0.95
2022-09-27T05:53:06.492Z,1.02
2022-09-27T05:55:33.382Z,0.90
2022-09-27T05:58:04.624Z,0.85
2022-09-27T06:00:41.612Z,0.63
2022-09-27T06:03:28.346Z,0.70
2022-09-27T06:06:27.440Z,1.00
2022-09-27T06:08:57.462Z,0.90
2022-09-27T06:11:27.469Z,0.95
2022-09-27T06:13:54.492Z,0.70
2022-09-27T06:16:21.754Z,0.65
2022-09-27T06:18:48.605Z,1.25
2022-09-27T06:21:16.381Z,1.35
2022-09-27T06:23:54.173Z,0.85
2022-09-27T06:26:27.403Z,0.85
2022-09-27T06:29:12.871Z,0.90
2022-09-27T06:31:46.500Z,0.70
2022-09-27T06:34:28.990Z,0.80
2022-09-27T06:36:57.379Z,1.33
2022-09-27T06:39:28.863Z,1.25
2022-09-27T06:42:14.144Z,1.13
2022-09-27T06:44:59.647Z,0.80
2022-09-27T06:47:46.734Z,0.70
2022-09-27T06:50:39.392Z,0.77
2022-09-27T06:53:09.228Z,0.77
2022-09-27T06:55:36.880Z,0.60
2022-09-27T06:58:23.905Z,0.70
2022-09-27T07:01:20.471Z,0.63
2022-09-27T07:04:07.292Z,0.80
2022-09-27T07:06:49.501Z,1.00
2022-09-27T07:09:22.203Z,1.00
2022-09-27T07:11:49.417Z,0.80
2022-09-27T07:14:17.324Z,1.00
2022-09-27T07:16:45.603Z,0.85
2022-09-27T07:19:14.297Z,1.55
2022-09-27T07:21:41.553Z,0.80
2022-09-27T07:24:08.405Z,1.17
2022-09-27T07:26:35.185Z,0.80
2022-09-27T07:29:04.536Z,1.13
2022-09-27T07:31:31.695Z,0.90
2022-09-27T07:33:59.138Z,1.40
2022-09-27T07:36:26.015Z,0.93
2022-09-27T07:38:53.268Z,0.80
2022-09-27T07:41:20.774Z,1.27
2022-09-27T07:43:47.651Z,1.40
2022-09-27T07:46:15.262Z,1.15
2022-09-27T07:49:00.399Z,1.10
2022-09-27T07:51:56.667Z,1.15
2022-09-27T07:54:49.829Z,0.93
2022-09-27T07:57:28.520Z,1.02
2022-09-27T07:59:57.701Z,1.05
2022-09-27T08:02:24.869Z,1.10
2022-09-27T08:04:53.136Z,1.17
2022-09-27T08:07:19.968Z,0.93
2022-09-27T08:09:50.951Z,1.00
2022-09-27T08:12:18.236Z,1.27
2022-09-27T08:14:48.301Z,0.70
2022-09-27T08:17:17.347Z,1.00
2022-09-27T08:20:06.313Z,0.98
2022-09-27T08:23:05.208Z,0.88
2022-09-27T08:25:36.385Z,1.00
2022-09-27T08:28:06.645Z,1.38
2022-09-27T08:30:47.339Z,1.10
2022-09-27T08:33:14.197Z,1.02
2022-09-27T08:35:41.041Z,0.77
2022-09-27T08:38:09.916Z,0.88
2022-09-27T08:40:54.452Z,1.00
2022-09-27T08:43:49.795Z,0.88
2022-09-27T08:46:55.761Z,0.80
2022-09-27T08:49:36.282Z,0.55
2022-09-27T08:52:13.000Z,0.70
2022-09-27T08:54:40.383Z,0.70
2022-09-27T08:57:12.820Z,0.60
2022-09-27T08:59:48.760Z,0.70
2022-09-27T09:02:26.269Z,0.77
2022-09-27T09:05:08.032Z,0.90
2022-09-27T09:08:03.249Z,1.20
2022-09-27T09:11:49.909Z,0.75
2022-09-27T09:14:43.968Z,0.85
2022-09-27T09:17:19.606Z,1.10
2022-09-27T09:20:16.970Z,0.50
2022-09-27T09:23:54.952Z,0.80
2022-09-27T09:27:14.663Z,0.43
2022-09-27T09:30:09.198Z,0.50
2022-09-27T09:33:10.261Z,0.80
2022-09-27T09:35:58.758Z,0.52
2022-09-27T09:38:53.473Z,0.60
2022-09-27T09:41:41.528Z,0.75
2022-09-27T09:44:24.759Z,0.65
2022-09-27T09:46:58.616Z,0.70
2022-09-27T09:49:44.043Z,0.57
2022-09-27T09:52:18.532Z,0.47
2022-09-27T09:54:50.464Z,0.65
2022-09-27T09:57:30.826Z,0.90
2022-09-27T10:00:05.347Z,0.70
2022-09-27T10:02:46.520Z,0.50
2022-09-27T10:05:25.831Z,0.93
2022-09-27T10:08:11.205Z,0.70
2022-09-27T10:10:40.076Z,1.10
2022-09-27T10:13:25.692Z,0.75
2022-09-27T10:16:11.150Z,0.50
2022-09-27T10:18:44.049Z,0.70
2022-09-27T10:21:25.607Z,0.70
2022-09-27T10:24:04.397Z,0.50
2022-09-27T10:26:51.605Z,0.90
2022-09-27T10:29:37.047Z,0.68
2022-09-27T10:32:22.084Z,0.57
2022-09-27T10:34:51.143Z,0.80
2022-09-27T10:37:23.542Z,0.68
2022-09-27T10:39:59.290Z,0.77
2022-09-27T10:42:37.769Z,0.75
2022-09-27T10:45:31.811Z,1.10
2022-09-27T10:48:24.599Z,0.60
2022-09-27T10:51:07.544Z,0.80
2022-09-27T10:53:48.304Z,0.70
2022-09-27T10:56:32.527Z,0.60
2022-09-27T10:59:02.888Z,0.88
2022-09-27T11:01:46.040Z,0.68
2022-09-27T11:04:31.608Z,0.55
2022-09-27T11:07:13.438Z,0.63
2022-09-27T11:09:54.840Z,0.88
2022-09-27T11:12:25.112Z,0.40
2022-09-27T11:15:19.051Z,0.63
2022-09-27T11:18:10.139Z,0.68
2022-09-27T11:20:54.328Z,0.50
2022-09-27T11:23:26.804Z,0.50
2022-09-27T11:26:45.229Z,0.60
2022-09-27T11:29:35.930Z,0.50
2022-09-27T11:33:08.035Z,0.60
2022-09-27T11:36:18.022Z,0.50
2022-09-27T11:39:09.501Z,0.60
2022-09-27T11:42:02.756Z,0.52
2022-09-27T11:48:11.656Z,0.40
2022-09-27T11:50:53.678Z,0.43
2022-09-27T11:54:10.195Z,0.38
2022-09-27T11:57:06.247Z,0.50
2022-09-27T12:00:10.472Z,0.70
2022-09-27T12:03:04.551Z,0.50
2022-09-27T12:05:43.773Z,0.60
2022-09-27T12:08:36.909Z,0.65
2022-09-27T12:11:25.289Z,0.85
2022-09-27T12:14:06.810Z,0.68
2022-09-27T12:16:38.740Z,0.50
2022-09-27T12:19:19.436Z,0.77
2022-09-27T12:21:54.725Z,1.00
2022-09-27T12:24:25.144Z,0.80
2022-09-27T12:27:07.801Z,0.60
2022-09-27T12:29:41.244Z,0.77
2022-09-27T12:32:20.480Z,0.90
2022-09-27T12:34:59.275Z,0.52
2022-09-27T12:37:35.866Z,0.55
2022-09-27T12:40:20.285Z,0.57
2022-09-27T12:43:00.555Z,0.88
2022-09-27T12:46:25.005Z,0.77
2022-09-27T12:49:25.303Z,0.73
2022-09-27T12:52:03.705Z,0.60
2022-09-27T12:55:26.250Z,0.50
2022-09-27T12:58:29.588Z,0.60
2022-09-27T13:01:21.367Z,0.60
2022-09-27T13:04:02.636Z,0.50
2022-09-27T13:06:56.798Z,0.80
2022-09-27T13:09:53.771Z,1.08
2022-09-27T13:12:26.296Z,1.08
2022-09-27T13:15:06.503Z,0.70
2022-09-27T13:17:44.693Z,0.77
2022-09-27T13:20:30.950Z,0.77
2022-09-27T13:23:00.731Z,0.75
2022-09-27T13:26:03.488Z,0.93
2022-09-27T13:29:03.073Z,0.65
2022-09-27T13:31:54.311Z,0.73
2022-09-27T13:34:43.323Z,0.73
2022-09-27T13:37:29.224Z,0.90
2022-09-27T13:40:20.961Z,0.50
2022-09-27T13:43:13.212Z,0.70
2022-09-27T13:46:15.720Z,0.50
2022-09-27T13:49:20.780Z,0.60
2022-09-27T13:52:35.758Z,0.55
2022-09-27T13:55:49.631Z,0.60
2022-09-27T13:59:00.399Z,0.90
2022-09-27T14:02:43.864Z,0.50
2022-09-27T14:05:20.618Z,0.60
2022-09-27T14:07:51.978Z,0.75
2022-09-27T14:10:23.109Z,1.00
2022-09-27T14:12:53.475Z,1.10
2022-09-27T14:15:28.561Z,1.17
2022-09-27T14:17:58.918Z,0.80
2022-09-27T14:20:53.101Z,0.75
2022-09-27T14:23:45.629Z,0.70
2022-09-27T14:26:26.956Z,0.70
2022-09-27T14:28:54.238Z,0.60
2022-09-27T14:31:26.901Z,0.95
2022-09-27T14:34:20.044Z,0.90
2022-09-27T14:37:07.700Z,0.77
2022-09-27T14:39:53.360Z,0.60
2022-09-27T14:42:36.232Z,0.70
2022-09-27T14:45:36.171Z,0.60
2022-09-27T14:48:21.609Z,0.63
2022-09-27T14:51:05.041Z,0.88
2022-09-27T14:53:45.388Z,1.00
2022-09-27T14:56:22.685Z,0.80
2022-09-27T14:59:02.278Z,0.77
2022-09-27T15:01:30.518Z,0.70
2022-09-27T15:04:08.319Z,0.65
2022-09-27T15:06:38.922Z,0.50
2022-09-27T15:09:10.129Z,0.60
2022-09-27T15:11:41.354Z,0.52
2022-09-27T15:14:17.233Z,0.80
2022-09-27T15:16:48.425Z,1.00
2022-09-27T15:19:26.947Z,1.00
2022-09-27T15:21:57.275Z,1.10
2022-09-27T15:24:47.456Z,0.90
2022-09-27T15:27:22.711Z,0.98
2022-09-27T15:29:56.406Z,1.00
2022-09-27T15:32:26.828Z,1.05
2022-09-27T15:34:56.018Z,0.75
2022-09-27T15:37:43.525Z,1.00
2022-09-27T15:40:16.473Z,1.33
2022-09-27T15:43:02.438Z,1.02
2022-09-27T15:45:35.975Z,1.10
2022-09-27T15:48:13.760Z,1.00
2022-09-27T15:50:41.563Z,1.00
2022-09-27T15:53:10.895Z,1.20
2022-09-27T15:55:45.251Z,1.00
2022-09-27T15:58:21.199Z,1.02
2022-09-27T16:00:57.718Z,1.30
2022-09-27T16:03:26.814Z,1.30
2022-09-27T16:05:56.880Z,1.45
2022-09-27T16:08:25.182Z,1.25
2022-09-27T16:10:58.797Z,1.10
2022-09-27T16:13:32.369Z,1.38
2022-09-27T16:16:02.268Z,1.95
2022-09-27T16:18:30.875Z,1.20
2022-09-27T16:20:59.407Z,1.30
2022-09-27T16:23:26.312Z,1.17
2022-09-27T16:25:53.788Z,1.80
2022-09-27T16:28:21.003Z,1.42
2022-09-27T16:30:48.009Z,1.60
2022-09-27T16:33:15.165Z,1.27
2022-09-27T16:35:42.104Z,1.42
2022-09-27T16:38:09.969Z,1.35
2022-09-27T16:40:38.031Z,1.42
2022-09-27T16:43:07.316Z,1.50
2022-09-27T16:45:36.180Z,1.35
2022-09-27T16:48:03.267Z,1.88
2022-09-27T16:50:48.769Z,1.70
2022-09-27T16:53:15.973Z,2.40
2022-09-27T16:55:42.807Z,1.90
2022-09-27T16:58:09.563Z,2.25
2022-09-27T17:00:36.402Z,2.30
2022-09-27T17:03:03.645Z,2.33
2022-09-27T17:05:31.631Z,2.63
2022-09-27T17:07:58.700Z,3.30
2022-09-27T17:10:25.606Z,3.00
2022-09-27T17:12:52.421Z,3.17
2022-09-27T17:15:19.394Z,5.57
2022-09-27T17:17:50.099Z,3.70
2022-09-27T17:20:17.567Z,1.75
2022-09-27T17:22:44.454Z,2.50
2022-09-27T17:25:11.638Z,2.25
2022-09-27T17:27:38.743Z,2.10
2022-09-27T17:30:06.892Z,2.67
2022-09-27T17:32:34.771Z,3.38
2022-09-27T17:35:02.518Z,2.65
2022-09-27T17:37:29.916Z,2.70
2022-09-27T17:39:57.513Z,2.53
2022-09-27T17:42:25.245Z,3.35
2022-09-27T17:44:52.190Z,3.33
2022-09-27T17:47:37.400Z,5.75
2022-09-27T17:50:23.035Z,6.45
2022-09-27T17:52:50.312Z,5.13
2022-09-27T17:55:17.167Z,2.67
2022-09-27T17:57:47.309Z,2.60
2022-09-27T18:00:14.642Z,3.80
2022-09-27T18:02:42.090Z,2.88
2022-09-27T18:05:09.765Z,2.42
2022-09-27T18:07:37.372Z,3.13
2022-09-27T18:10:05.234Z,2.60
2022-09-27T18:12:32.879Z,4.35
2022-09-27T18:14:59.660Z,2.22
2022-09-27T18:17:27.736Z,2.20
2022-09-27T18:19:56.869Z,1.73
2022-09-27T18:22:26.345Z,1.60
2022-09-27T18:24:53.180Z,1.88
2022-09-27T18:27:20.159Z,1.75
2022-09-27T18:29:47.084Z,2.88
2022-09-27T18:32:14.048Z,2.40
2022-09-27T18:34:40.923Z,2.10
2022-09-27T18:37:07.861Z,2.50
2022-09-27T18:39:34.627Z,3.95
2022-09-27T18:42:01.472Z,2.40
2022-09-27T18:44:28.260Z,2.60
2022-09-27T18:46:55.192Z,2.20
2022-09-27T18:49:25.734Z,4.22
2022-09-27T18:51:53.940Z,2.67
2022-09-27T18:54:22.590Z,2.38
2022-09-27T18:56:52.131Z,1.75
2022-09-27T18:59:21.306Z,2.40
2022-09-27T19:01:48.185Z,2.80
2022-09-27T19:04:24.088Z,1.92
2022-09-27T19:06:55.705Z,2.33
2022-09-27T19:09:22.964Z,3.80
2022-09-27T19:11:49.821Z,8.85
2022-09-27T19:14:22.342Z,12.75
2022-09-27T19:16:50.272Z,6.80
2022-09-27T19:19:19.466Z,5.95
2022-09-27T19:21:46.822Z,10.30
2022-09-27T19:24:15.130Z,5.80
2022-09-27T19:26:42.560Z,2.80
2022-09-27T19:29:10.317Z,3.40
2022-09-27T19:31:37.391Z,2.45
2022-09-27T19:34:04.835Z,5.10
2022-09-27T19:36:31.806Z,5.80
2022-09-27T19:38:59.030Z,7.40
2022-09-27T19:41:26.884Z,7.05
2022-09-27T19:43:55.626Z,3.55
2022-09-27T19:46:24.553Z,3.05
2022-09-27T19:48:52.711Z,4.50
2022-09-27T19:51:26.045Z,5.13
2022-09-27T19:53:54.343Z,4.63
2022-09-27T19:56:22.807Z,5.80
2022-09-27T19:58:50.217Z,3.88
2022-09-27T20:01:23.856Z,4.00
2022-09-27T20:03:53.439Z,4.00
2022-09-27T20:06:21.652Z,4.10
2022-09-27T20:08:49.088Z,3.53
2022-09-27T20:11:19.499Z,4.05
2022-09-27T20:13:46.865Z,3.88
2022-09-27T20:16:18.292Z,3.90
2022-09-27T20:18:48.596Z,3.45
2022-09-27T20:21:17.325Z,3.58
2022-09-27T20:23:47.916Z,3.53
2022-09-27T20:26:17.098Z,3.25
2022-09-27T20:28:49.928Z,3.33
2022-09-27T20:31:20.875Z,3.97
2022-09-27T20:33:50.717Z,4.72
2022-09-27T20:36:26.292Z,6.78
2022-09-27T20:39:03.150Z,5.90
2022-09-27T20:41:34.358Z,6.07
2022-09-27T20:44:05.585Z,5.90
2022-09-27T20:46:34.171Z,5.30
2022-09-27T20:49:05.372Z,3.95
2022-09-27T20:51:34.842Z,3.53
2022-09-27T20:54:04.152Z,4.13
2022-09-27T20:56:34.453Z,3.85
2022-09-27T20:59:05.922Z,3.92
2022-09-27T21:01:33.737Z,3.53
2022-09-27T21:04:05.171Z,3.35
2022-09-27T21:06:33.032Z,3.40
2022-09-27T21:09:03.380Z,3.40
2022-09-27T21:11:30.207Z,2.97
2022-09-27T21:13:57.268Z,2.78
2022-09-27T21:16:27.806Z,3.22
2022-09-27T21:18:56.844Z,3.05
2022-09-27T21:21:25.287Z,2.83
2022-09-27T21:23:59.127Z,2.45
2022-09-27T21:26:31.351Z,2.70
2022-09-27T21:29:01.263Z,2.60
2022-09-27T21:31:32.441Z,2.65
2022-09-27T21:34:04.470Z,2.65
2022-09-27T21:36:38.883Z,2.70
2022-09-27T21:39:08.718Z,2.78
2022-09-27T21:41:36.758Z,2.28
2022-09-27T21:44:05.705Z,2.63
2022-09-27T21:46:32.849Z,2.50
2022-09-27T21:49:04.514Z,2.75
2022-09-27T21:51:41.152Z,2.10
2022-09-27T21:54:13.547Z,2.28
2022-09-27T21:56:41.785Z,2.35
2022-09-27T21:59:14.508Z,2.30
2022-09-27T22:01:45.140Z,2.38
2022-09-27T22:04:12.859Z,2.30
2022-09-27T22:06:40.576Z,2.45
2022-09-27T22:09:13.579Z,2.33
2022-09-27T22:11:46.156Z,2.38
2022-09-27T22:14:15.966Z,2.33
2022-09-27T22:16:42.955Z,2.33
2022-09-27T22:19:12.761Z,2.58
2022-09-27T22:21:40.868Z,2.72
2022-09-27T22:24:17.167Z,2.42
2022-09-27T22:26:50.697Z,2.80
2022-09-27T22:29:17.861Z,2.80
2022-09-27T22:31:45.048Z,2.58
2022-09-27T22:34:28.519Z,2.72
2022-09-27T22:37:00.673Z,2.30
2022-09-27T22:39:28.791Z,2.33
2022-09-27T22:41:55.559Z,2.42
2022-09-27T22:44:22.751Z,2.40
2022-09-27T22:46:49.535Z,2.13
2022-09-27T22:49:16.434Z,2.05
2022-09-27T22:51:43.620Z,2.47
2022-09-27T22:54:10.448Z,2.45
2022-09-27T22:56:37.180Z,2.35
2022-09-27T22:59:04.097Z,2.40
2022-09-27T23:01:31.589Z,2.10
2022-09-27T23:03:59.042Z,2.30
2022-09-27T23:06:25.996Z,2.10
2022-09-27T23:08:53.522Z,2.22
2022-09-27T23:11:22.643Z,2.53
2022-09-27T23:13:51.361Z,1.88
2022-09-27T23:16:25.458Z,2.42
2022-09-27T23:18:55.108Z,2.70
2022-09-27T23:21:24.536Z,2.30
2022-09-27T23:23:54.937Z,2.78
2022-09-27T23:26:25.877Z,2.30
2022-09-27T23:28:59.501Z,2.13
2022-09-27T23:31:29.825Z,2.20
2022-09-27T23:34:01.345Z,2.67
2022-09-27T23:36:28.283Z,2.08
2022-09-27T23:38:59.136Z,2.05
2022-09-27T23:41:26.162Z,2.08
2022-09-27T23:43:54.113Z,1.83
2022-09-27T23:46:21.207Z,1.65
2022-09-27T23:48:48.241Z,1.67
2022-09-27T23:51:15.004Z,2.10
2022-09-27T23:53:41.848Z,2.38
2022-09-27T23:56:17.017Z,2.20
2022-09-27T23:58:46.308Z,1.80
